createdAt,value
2017-07-25T00:00:09.892Z,0
2017-07-25T00:02:42.862Z,0
2017-07-25T00:05:20.868Z,0
2017-07-25T00:06:01.313Z,0
2017-07-25T00:06:41.792Z,0
2017-07-25T00:07:22.280Z,0
2017-07-25T00:08:03.436Z,0
2017-07-25T00:08:43.933Z,0
2017-07-25T00:09:24.462Z,0
2017-07-25T00:10:05.011Z,0
2017-07-25T00:12:32.971Z,0
2017-07-25T00:13:13.449Z,0
2017-07-25T00:15:31.851Z,0
2017-07-25T00:16:12.309Z,0
2017-07-25T00:16:52.758Z,0
2017-07-25T00:17:33.179Z,0
2017-07-25T00:18:15.221Z,0
2017-07-25T00:18:56.464Z,0
2017-07-25T00:19:37.851Z,0
2017-07-25T00:20:18.310Z,0
2017-07-25T00:20:58.847Z,0
2017-07-25T00:21:39.232Z,0
2017-07-25T00:22:19.674Z,0
2017-07-25T00:24:32.352Z,0
2017-07-25T00:25:12.830Z,0
2017-07-25T00:25:53.305Z,0
2017-07-25T00:28:27.070Z,0
2017-07-25T00:29:07.549Z,0
2017-07-25T00:29:48.022Z,0
2017-07-25T00:30:28.456Z,0
2017-07-25T00:31:08.874Z,0
2017-07-25T00:33:21.633Z,0
2017-07-25T00:34:02.039Z,0
2017-07-25T00:34:42.476Z,0
2017-07-25T00:35:22.909Z,0
2017-07-25T00:36:03.419Z,0
2017-07-25T00:36:43.868Z,0
2017-07-25T00:37:24.339Z,0
2017-07-25T00:38:04.808Z,0
2017-07-25T00:38:45.227Z,0
2017-07-25T00:39:25.721Z,0
2017-07-25T00:40:06.135Z,0
2017-07-25T00:40:46.588Z,0
2017-07-25T00:41:27.054Z,0
2017-07-25T00:42:07.503Z,0
2017-07-25T00:42:47.973Z,0
2017-07-25T00:43:28.422Z,0
2017-07-25T00:44:08.910Z,0
2017-07-25T00:44:49.329Z,0
2017-07-25T00:45:29.754Z,0
2017-07-25T00:46:10.196Z,0
2017-07-25T00:46:50.643Z,0
2017-07-25T00:47:31.094Z,0
2017-07-25T00:48:11.554Z,0
2017-07-25T00:48:52.042Z,0
2017-07-25T00:49:32.493Z,0
2017-07-25T00:53:33.257Z,0
2017-07-25T00:54:13.680Z,0
2017-07-25T00:54:54.153Z,0
2017-07-25T00:55:34.556Z,0
2017-07-25T00:56:15.081Z,0
2017-07-25T00:56:55.536Z,0
2017-07-25T00:57:36.015Z,0
2017-07-25T00:58:16.412Z,0
2017-07-25T00:58:56.867Z,0
2017-07-25T00:59:37.328Z,0
2017-07-25T01:00:17.846Z,0
2017-07-25T01:00:58.293Z,0
2017-07-25T01:01:39.697Z,0
2017-07-25T01:02:20.110Z,0
2017-07-25T01:03:00.572Z,0
2017-07-25T01:03:41.949Z,0
2017-07-25T01:04:22.405Z,0
2017-07-25T01:05:02.866Z,0
2017-07-25T01:05:43.305Z,0
2017-07-25T01:06:23.792Z,0
2017-07-25T01:07:04.242Z,0
2017-07-25T01:07:44.734Z,0
2017-07-25T01:08:25.228Z,0
2017-07-25T01:10:43.033Z,0
2017-07-25T01:13:21.073Z,0
2017-07-25T01:14:01.486Z,0
2017-07-25T01:14:41.955Z,0
2017-07-25T01:17:09.886Z,0
2017-07-25T01:17:50.300Z,0
2017-07-25T01:20:03.005Z,0
2017-07-25T01:20:44.466Z,0
2017-07-25T01:21:24.873Z,0
2017-07-25T01:22:05.359Z,0
2017-07-25T01:22:45.802Z,0
2017-07-25T01:23:26.239Z,0
2017-07-25T01:24:06.723Z,0
2017-07-25T01:24:47.181Z,0
2017-07-25T01:27:25.234Z,0
2017-07-25T01:28:05.745Z,0
2017-07-25T01:28:46.170Z,0
2017-07-25T01:29:26.624Z,0
2017-07-25T01:30:07.055Z,0
2017-07-25T01:30:47.459Z,0
2017-07-25T01:31:27.918Z,0
2017-07-25T01:32:08.387Z,0
2017-07-25T01:32:48.801Z,0
2017-07-25T01:33:30.343Z,0
2017-07-25T01:36:03.423Z,0
2017-07-25T01:36:43.882Z,0
2017-07-25T01:37:24.312Z,0
2017-07-25T01:38:04.797Z,0
2017-07-25T01:38:45.282Z,0
2017-07-25T01:39:25.736Z,0
2017-07-25T01:40:06.195Z,0
2017-07-25T01:40:46.635Z,0
2017-07-25T01:41:27.129Z,0
2017-07-25T01:42:07.560Z,0
2017-07-25T01:42:48.022Z,0
2017-07-25T01:43:28.430Z,0
2017-07-25T01:44:08.930Z,0
2017-07-25T01:44:49.346Z,0
2017-07-25T01:45:29.781Z,0
2017-07-25T01:48:09.000Z,0
2017-07-25T01:48:49.414Z,0
2017-07-25T01:49:29.877Z,0
2017-07-25T01:50:10.322Z,0
2017-07-25T01:50:50.869Z,0
2017-07-25T01:51:31.442Z,0
2017-07-25T01:52:11.897Z,0
2017-07-25T01:52:52.364Z,0
2017-07-25T01:53:33.575Z,0
2017-07-25T01:54:14.035Z,0
2017-07-25T01:54:54.480Z,0
2017-07-25T01:55:34.954Z,0
2017-07-25T01:56:15.459Z,0
2017-07-25T01:58:48.421Z,0
2017-07-25T01:59:28.867Z,0
2017-07-25T02:00:09.337Z,0
2017-07-25T02:00:49.743Z,0
2017-07-25T02:01:30.216Z,0
2017-07-25T02:02:10.621Z,0
2017-07-25T02:02:51.046Z,0
2017-07-25T02:03:31.585Z,0
2017-07-25T02:04:12.006Z,0
2017-07-25T02:04:52.438Z,0
2017-07-25T02:05:32.894Z,0
2017-07-25T02:06:13.357Z,0
2017-07-25T02:06:53.776Z,0
2017-07-25T02:07:34.242Z,0
2017-07-25T02:08:14.696Z,0
2017-07-25T02:08:55.148Z,0
2017-07-25T02:09:35.620Z,0
2017-07-25T02:11:53.694Z,0
2017-07-25T02:12:34.161Z,0
2017-07-25T02:13:14.697Z,0
2017-07-25T02:13:55.115Z,0
2017-07-25T02:14:35.569Z,0
2017-07-25T02:15:16.009Z,0
2017-07-25T02:15:56.451Z,0
2017-07-25T02:18:09.189Z,0
2017-07-25T02:18:49.624Z,0
2017-07-25T02:21:17.545Z,0
2017-07-25T02:21:58.019Z,0
2017-07-25T02:22:38.470Z,0
2017-07-25T02:23:18.903Z,0
2017-07-25T02:23:59.333Z,0
2017-07-25T02:24:39.763Z,0
2017-07-25T02:25:20.223Z,0
2017-07-25T02:26:00.666Z,0
2017-07-25T02:26:41.101Z,0
2017-07-25T02:27:21.564Z,0
2017-07-25T02:28:02.000Z,0
2017-07-25T02:28:42.448Z,0
2017-07-25T02:30:55.154Z,0
2017-07-25T02:31:35.577Z,0
2017-07-25T02:32:16.071Z,0
2017-07-25T02:32:56.488Z,0
2017-07-25T02:33:36.922Z,0
2017-07-25T02:34:17.342Z,0
2017-07-25T02:34:57.809Z,0
2017-07-25T02:37:35.923Z,0
2017-07-25T02:38:16.343Z,0
2017-07-25T02:38:56.775Z,0
2017-07-25T02:39:37.182Z,0
2017-07-25T02:40:17.680Z,0
2017-07-25T02:40:58.104Z,0
2017-07-25T02:41:38.602Z,0
2017-07-25T02:42:19.073Z,0
2017-07-25T02:42:59.542Z,0
2017-07-25T02:43:40.004Z,0
2017-07-25T02:44:20.457Z,0
2017-07-25T02:45:00.909Z,0
2017-07-25T02:45:41.376Z,0
2017-07-25T02:46:21.785Z,0
2017-07-25T02:47:02.218Z,0
2017-07-25T02:47:42.664Z,0
2017-07-25T02:48:23.129Z,0
2017-07-25T02:49:03.591Z,0
2017-07-25T02:51:16.404Z,0
2017-07-25T02:51:56.886Z,0
2017-07-25T02:52:37.341Z,0
2017-07-25T02:53:17.814Z,0
2017-07-25T02:53:58.260Z,0
2017-07-25T02:54:38.698Z,0
2017-07-25T02:56:56.485Z,0
2017-07-25T02:57:36.953Z,0
2017-07-25T02:58:17.441Z,0
2017-07-25T02:58:57.884Z,0
2017-07-25T03:01:35.920Z,0
2017-07-25T03:02:16.402Z,0
2017-07-25T03:02:56.812Z,0
2017-07-25T03:03:37.264Z,0
2017-07-25T03:04:17.734Z,0
2017-07-25T03:04:58.168Z,0
2017-07-25T03:05:38.620Z,0
2017-07-25T03:06:19.094Z,0
2017-07-25T03:06:59.524Z,0
2017-07-25T03:07:40.875Z,0
2017-07-25T03:08:21.396Z,0
2017-07-25T03:09:01.851Z,0
2017-07-25T03:09:42.286Z,0
2017-07-25T03:10:22.685Z,0
2017-07-25T03:11:03.150Z,0
2017-07-25T03:11:43.628Z,0
2017-07-25T03:12:24.067Z,0
2017-07-25T03:13:04.504Z,0
2017-07-25T03:13:44.951Z,0
2017-07-25T03:14:25.404Z,0
2017-07-25T03:15:05.814Z,0
2017-07-25T03:15:46.262Z,0
2017-07-25T03:18:19.264Z,0
2017-07-25T03:18:59.707Z,0
2017-07-25T03:19:40.161Z,0
2017-07-25T03:20:20.660Z,0
2017-07-25T03:21:01.101Z,0
2017-07-25T03:23:35.346Z,0
2017-07-25T03:24:15.803Z,0
2017-07-25T03:24:56.249Z,0
2017-07-25T03:25:36.654Z,0
2017-07-25T03:26:17.106Z,0
2017-07-25T03:26:57.544Z,0
2017-07-25T03:27:37.997Z,0
2017-07-25T03:28:18.450Z,0
2017-07-25T03:30:36.225Z,0
2017-07-25T03:31:16.702Z,0
2017-07-25T03:31:57.198Z,0
2017-07-25T03:32:37.653Z,0
2017-07-25T03:33:18.072Z,0
2017-07-25T03:35:45.960Z,0
2017-07-25T03:36:26.413Z,0
2017-07-25T03:37:06.921Z,0
2017-07-25T03:37:47.354Z,0
2017-07-25T03:38:27.787Z,0
2017-07-25T03:39:08.270Z,0
2017-07-25T03:39:48.784Z,0
2017-07-25T03:40:29.245Z,0
2017-07-25T03:41:09.672Z,0
2017-07-25T03:41:50.116Z,0
2017-07-25T03:42:30.597Z,0
2017-07-25T03:43:11.054Z,0
2017-07-25T03:43:51.535Z,0
2017-07-25T03:46:19.460Z,0
2017-07-25T03:46:59.957Z,0
2017-07-25T03:49:17.789Z,0
2017-07-25T03:49:58.218Z,0
2017-07-25T03:50:38.651Z,0
2017-07-25T03:51:19.134Z,0
2017-07-25T03:51:59.595Z,0
2017-07-25T03:52:40.045Z,0
2017-07-25T03:53:20.535Z,0
2017-07-25T03:54:00.988Z,0
2017-07-25T03:54:41.520Z,5
2017-07-25T03:55:21.968Z,5
2017-07-25T03:56:02.427Z,5
2017-07-25T03:56:42.919Z,5
2017-07-25T03:57:23.468Z,5
2017-07-25T03:58:03.959Z,5
2017-07-25T03:58:44.402Z,5
2017-07-25T04:01:12.637Z,5
2017-07-25T04:01:53.106Z,5
2017-07-25T04:04:21.233Z,5
2017-07-25T04:05:01.691Z,5
2017-07-25T04:05:42.140Z,5
2017-07-25T04:06:22.561Z,5
2017-07-25T04:07:03.036Z,5
2017-07-25T04:07:43.455Z,5
2017-07-25T04:08:23.930Z,5
2017-07-25T04:09:04.389Z,5
2017-07-25T04:09:44.866Z,10
2017-07-25T04:10:25.250Z,10
2017-07-25T04:11:05.692Z,5
2017-07-25T04:11:46.131Z,5
2017-07-25T04:12:26.574Z,5
2017-07-25T04:13:07.016Z,5
2017-07-25T04:13:47.463Z,5
2017-07-25T04:16:20.556Z,5
2017-07-25T04:17:01.000Z,10
2017-07-25T04:17:41.429Z,10
2017-07-25T04:18:21.892Z,10
2017-07-25T04:19:02.336Z,10
2017-07-25T04:21:41.346Z,10
2017-07-25T04:24:19.413Z,20
2017-07-25T04:24:59.846Z,20
2017-07-25T04:27:32.890Z,25
2017-07-25T04:28:13.356Z,25
2017-07-25T04:28:53.852Z,25
2017-07-25T04:29:34.288Z,30
2017-07-25T04:32:02.409Z,30
2017-07-25T04:32:42.818Z,35
2017-07-25T04:35:20.897Z,35
2017-07-25T04:36:01.321Z,35
2017-07-25T04:36:41.768Z,35
2017-07-25T04:37:22.233Z,35
2017-07-25T04:38:02.694Z,40
2017-07-25T04:38:43.099Z,40
2017-07-25T04:39:23.544Z,40
2017-07-25T04:40:03.969Z,45
2017-07-25T04:40:44.423Z,50
2017-07-25T04:41:24.852Z,55
2017-07-25T04:42:05.334Z,60
2017-07-25T04:42:45.835Z,60
2017-07-25T04:43:26.273Z,65
2017-07-25T04:44:06.698Z,65
2017-07-25T04:44:47.116Z,70
2017-07-25T04:47:20.230Z,75
2017-07-25T04:48:01.453Z,75
2017-07-25T04:48:41.910Z,75
2017-07-25T04:49:22.320Z,75
2017-07-25T04:50:02.741Z,75
2017-07-25T04:50:43.198Z,75
2017-07-25T04:51:23.659Z,75
2017-07-25T04:53:51.533Z,75
2017-07-25T04:54:31.957Z,75
2017-07-25T04:55:12.429Z,75
2017-07-25T04:55:52.869Z,70
2017-07-25T04:56:33.313Z,70
2017-07-25T04:57:13.752Z,70
2017-07-25T04:57:54.205Z,70
2017-07-25T04:58:34.696Z,70
2017-07-25T04:59:15.166Z,65
2017-07-25T04:59:55.580Z,65
2017-07-25T05:00:36.029Z,65
2017-07-25T05:01:16.480Z,65
2017-07-25T05:01:56.924Z,60
2017-07-25T05:02:37.374Z,60
2017-07-25T05:04:50.081Z,60
2017-07-25T05:05:30.505Z,65
2017-07-25T05:06:10.953Z,65
2017-07-25T05:06:51.412Z,65
2017-07-25T05:07:31.865Z,65
2017-07-25T05:08:12.362Z,65
2017-07-25T05:08:52.814Z,65
2017-07-25T05:09:33.240Z,65
2017-07-25T05:10:13.697Z,65
2017-07-25T05:10:54.153Z,65
2017-07-25T05:11:34.617Z,60
2017-07-25T05:12:15.122Z,60
2017-07-25T05:12:55.550Z,55
2017-07-25T05:13:35.996Z,50
2017-07-25T05:14:16.470Z,50
2017-07-25T05:14:56.916Z,50
2017-07-25T05:15:37.340Z,45
2017-07-25T05:16:17.779Z,45
2017-07-25T05:16:58.180Z,45
2017-07-25T05:17:39.548Z,50
2017-07-25T05:18:19.982Z,55
2017-07-25T05:19:00.403Z,60
2017-07-25T05:19:40.868Z,55
2017-07-25T05:20:21.319Z,55
2017-07-25T05:21:01.766Z,50
2017-07-25T05:23:39.830Z,50
2017-07-25T05:24:20.250Z,50
2017-07-25T05:25:00.694Z,50
2017-07-25T05:25:41.142Z,45
2017-07-25T05:27:59.217Z,35
2017-07-25T05:28:39.643Z,35
2017-07-25T05:29:20.076Z,30
2017-07-25T05:30:00.551Z,35
2017-07-25T05:30:41.003Z,35
2017-07-25T05:31:21.453Z,35
2017-07-25T05:32:01.882Z,35
2017-07-25T05:32:42.325Z,35
2017-07-25T05:33:22.748Z,30
2017-07-25T05:34:03.234Z,30
2017-07-25T05:34:43.688Z,30
2017-07-25T05:35:24.112Z,30
2017-07-25T05:36:04.586Z,25
2017-07-25T05:36:45.077Z,25
2017-07-25T05:37:25.604Z,25
2017-07-25T05:38:06.057Z,25
2017-07-25T05:38:46.553Z,25
2017-07-25T05:39:27.032Z,30
2017-07-25T05:40:07.431Z,30
2017-07-25T05:40:47.852Z,30
2017-07-25T05:44:33.968Z,40
2017-07-25T05:45:14.450Z,40
2017-07-25T05:45:54.857Z,40
2017-07-25T05:46:35.323Z,40
2017-07-25T05:47:15.782Z,45
2017-07-25T05:47:56.230Z,50
2017-07-25T05:48:36.723Z,50
2017-07-25T05:49:17.212Z,55
2017-07-25T05:49:57.718Z,60
2017-07-25T05:50:38.144Z,60
2017-07-25T05:51:18.616Z,65
2017-07-25T05:51:59.592Z,65
2017-07-25T05:52:40.029Z,70
2017-07-25T05:53:20.497Z,70
2017-07-25T05:54:00.928Z,70
2017-07-25T05:54:41.491Z,75
2017-07-25T05:55:21.962Z,75
2017-07-25T05:56:02.381Z,75
2017-07-25T05:58:30.317Z,80
2017-07-25T05:59:10.777Z,80
2017-07-25T05:59:51.228Z,80
2017-07-25T06:02:03.925Z,90
2017-07-25T06:04:41.989Z,80
2017-07-25T06:05:22.465Z,80
2017-07-25T06:06:02.928Z,75
2017-07-25T06:06:43.376Z,75
2017-07-25T06:09:12.020Z,70
2017-07-25T06:09:52.444Z,65
2017-07-25T06:10:32.839Z,65
2017-07-25T06:11:13.336Z,60
2017-07-25T06:11:54.345Z,60
2017-07-25T06:12:34.781Z,60
2017-07-25T06:13:15.240Z,65
2017-07-25T06:13:55.717Z,65
2017-07-25T06:14:36.165Z,70
2017-07-25T06:15:16.628Z,75
2017-07-25T06:15:57.899Z,85
2017-07-25T06:16:39.134Z,90
2017-07-25T06:17:19.595Z,90
2017-07-25T06:18:00.040Z,95
2017-07-25T06:18:40.486Z,100
2017-07-25T06:19:21.458Z,100
2017-07-25T06:20:01.882Z,100
2017-07-25T06:22:14.612Z,90
2017-07-25T06:22:55.061Z,90
2017-07-25T06:25:12.853Z,80
2017-07-25T06:25:53.340Z,80
2017-07-25T06:26:33.792Z,80
2017-07-25T06:27:14.290Z,80
2017-07-25T06:27:54.759Z,90
2017-07-25T06:28:35.258Z,95
2017-07-25T06:29:15.702Z,95
2017-07-25T06:29:56.970Z,90
2017-07-25T06:30:37.422Z,85
2017-07-25T06:31:17.902Z,80
2017-07-25T06:31:58.336Z,75
2017-07-25T06:32:38.848Z,65
2017-07-25T06:33:19.294Z,65
2017-07-25T06:33:59.764Z,65
2017-07-25T06:34:40.237Z,70
2017-07-25T06:35:20.730Z,70
2017-07-25T06:36:01.188Z,75
2017-07-25T06:38:39.312Z,100
2017-07-25T06:39:19.794Z,105
2017-07-25T06:40:00.285Z,105
2017-07-25T06:40:40.744Z,105
2017-07-25T06:41:21.210Z,100
2017-07-25T06:42:01.685Z,105
2017-07-25T06:42:42.107Z,105
2017-07-25T06:43:22.574Z,105
2017-07-25T06:44:03.105Z,100
2017-07-25T06:44:43.607Z,95
2017-07-25T06:45:24.082Z,85
2017-07-25T06:46:04.592Z,85
2017-07-25T06:46:45.057Z,85
2017-07-25T06:47:25.524Z,80
2017-07-25T06:49:53.418Z,60
2017-07-25T06:50:34.125Z,65
2017-07-25T06:51:14.625Z,80
2017-07-25T06:51:55.045Z,95
2017-07-25T06:54:12.861Z,150
2017-07-25T06:54:53.381Z,165
2017-07-25T06:55:33.844Z,180
2017-07-25T06:56:14.275Z,200
2017-07-25T06:56:54.732Z,230
2017-07-25T06:57:35.216Z,250
2017-07-25T06:59:48.101Z,295
2017-07-25T07:00:28.582Z,320
2017-07-25T07:01:09.059Z,320
2017-07-25T07:01:49.527Z,295
2017-07-25T07:02:29.999Z,290
2017-07-25T07:03:10.441Z,285
2017-07-25T07:03:50.898Z,290
2017-07-25T07:04:31.374Z,285
2017-07-25T07:05:11.894Z,280
2017-07-25T07:07:29.741Z,235
2017-07-25T07:08:10.204Z,220
2017-07-25T07:08:50.687Z,210
2017-07-25T07:09:31.172Z,200
2017-07-25T07:10:11.654Z,185
2017-07-25T07:10:52.106Z,165
2017-07-25T07:11:32.563Z,160
2017-07-25T07:12:13.031Z,155
2017-07-25T07:12:53.512Z,165
2017-07-25T07:13:34.032Z,180
2017-07-25T07:14:14.492Z,195
2017-07-25T07:16:27.332Z,210
2017-07-25T07:17:07.960Z,200
2017-07-25T07:17:48.473Z,190
2017-07-25T07:18:28.942Z,185
2017-07-25T07:21:07.093Z,215
2017-07-25T07:21:47.554Z,240
2017-07-25T07:22:28.054Z,245
2017-07-25T07:23:08.563Z,240
2017-07-25T07:23:48.986Z,235
2017-07-25T07:26:22.399Z,215
2017-07-25T07:27:02.913Z,195
2017-07-25T07:27:43.406Z,185
2017-07-25T07:28:23.926Z,190
2017-07-25T07:29:04.419Z,190
2017-07-25T07:29:44.894Z,195
2017-07-25T07:30:25.333Z,210
2017-07-25T07:31:05.749Z,200
2017-07-25T07:31:46.249Z,205
2017-07-25T07:32:26.731Z,210
2017-07-25T07:33:07.205Z,195
2017-07-25T07:33:47.722Z,175
2017-07-25T07:34:28.183Z,160
2017-07-25T07:35:08.642Z,140
2017-07-25T07:37:26.674Z,125
2017-07-25T07:38:07.035Z,120
2017-07-25T07:38:47.544Z,120
2017-07-25T07:39:27.978Z,115
2017-07-25T07:40:09.378Z,105
2017-07-25T07:40:49.842Z,95
2017-07-25T07:41:30.300Z,90
2017-07-25T07:42:10.801Z,90
2017-07-25T07:42:51.269Z,100
2017-07-25T07:43:31.860Z,105
2017-07-25T07:44:12.464Z,115
2017-07-25T07:44:53.111Z,120
2017-07-25T07:45:33.718Z,115
2017-07-25T07:47:51.610Z,145
2017-07-25T07:48:32.011Z,140
2017-07-25T07:49:12.508Z,135
2017-07-25T07:49:53.114Z,130
2017-07-25T07:50:33.650Z,140
2017-07-25T07:51:14.289Z,150
2017-07-25T07:51:54.914Z,175
2017-07-25T07:52:35.546Z,185
2017-07-25T07:53:15.997Z,195
2017-07-25T07:53:56.613Z,205
2017-07-25T07:54:38.020Z,195
2017-07-25T07:55:18.503Z,180
2017-07-25T07:55:58.983Z,165
2017-07-25T07:56:39.584Z,150
2017-07-25T07:57:20.164Z,135
2017-07-25T07:58:00.950Z,130
2017-07-25T07:58:41.698Z,130
2017-07-25T07:59:22.232Z,130
2017-07-25T08:00:02.741Z,140
2017-07-25T08:00:43.197Z,145
2017-07-25T08:01:24.244Z,140
2017-07-25T08:02:04.854Z,145
2017-07-25T08:02:45.548Z,140
2017-07-25T08:03:27.983Z,130
2017-07-25T08:04:08.668Z,120
2017-07-25T08:04:49.380Z,115
2017-07-25T08:09:00.505Z,100
2017-07-25T08:09:40.968Z,100
2017-07-25T08:10:21.471Z,95
2017-07-25T08:11:01.972Z,90
2017-07-25T08:11:42.488Z,80
2017-07-25T08:12:22.964Z,75
2017-07-25T08:13:03.441Z,85
2017-07-25T08:13:43.945Z,100
2017-07-25T08:14:24.431Z,110
2017-07-25T08:15:04.884Z,110
2017-07-25T08:15:45.366Z,100
2017-07-25T08:18:03.149Z,95
2017-07-25T08:18:43.612Z,100
2017-07-25T08:19:24.100Z,110
2017-07-25T08:20:04.578Z,110
2017-07-25T08:20:45.068Z,115
2017-07-25T08:21:25.544Z,120
2017-07-25T08:22:07.539Z,125
2017-07-25T08:22:48.056Z,145
2017-07-25T08:23:28.489Z,145
2017-07-25T08:24:08.996Z,135
2017-07-25T08:24:49.517Z,130
2017-07-25T08:27:22.650Z,150
2017-07-25T08:28:03.115Z,160
2017-07-25T08:28:43.591Z,165
2017-07-25T08:29:24.062Z,170
2017-07-25T08:30:04.532Z,175
2017-07-25T08:32:32.491Z,200
2017-07-25T08:33:12.988Z,200
2017-07-25T08:33:53.522Z,215
2017-07-25T08:34:34.011Z,215
2017-07-25T08:35:14.526Z,220
2017-07-25T08:35:55.011Z,230
2017-07-25T08:36:35.502Z,245
2017-07-25T08:37:15.971Z,260
2017-07-25T08:37:56.583Z,275
2017-07-25T08:38:37.068Z,285
2017-07-25T08:41:10.053Z,305
2017-07-25T08:41:50.582Z,300
2017-07-25T08:42:31.048Z,295
2017-07-25T08:43:11.554Z,290
2017-07-25T08:43:52.186Z,280
2017-07-25T08:44:32.676Z,270
2017-07-25T08:45:13.141Z,255
2017-07-25T08:45:53.604Z,240
2017-07-25T08:46:34.056Z,240
2017-07-25T08:47:14.528Z,260
2017-07-25T08:47:55.949Z,300
2017-07-25T08:48:36.415Z,310
2017-07-25T08:49:17.461Z,305
2017-07-25T08:51:30.258Z,315
2017-07-25T08:52:10.746Z,295
2017-07-25T08:52:51.282Z,295
2017-07-25T08:53:31.817Z,310
2017-07-25T08:54:12.230Z,290
2017-07-25T08:54:55.278Z,265
2017-07-25T08:55:35.909Z,250
2017-07-25T08:56:17.432Z,205
2017-07-25T08:56:58.052Z,175
2017-07-25T08:57:38.608Z,170
2017-07-25T08:58:19.146Z,170
2017-07-25T08:58:59.618Z,185
2017-07-25T08:59:40.137Z,200
2017-07-25T09:01:52.907Z,185
2017-07-25T09:02:33.379Z,185
2017-07-25T09:03:13.871Z,180
2017-07-25T09:03:54.338Z,185
2017-07-25T09:04:34.832Z,200
2017-07-25T09:05:15.348Z,215
2017-07-25T09:05:55.854Z,230
2017-07-25T09:06:36.372Z,250
2017-07-25T09:07:16.815Z,260
2017-07-25T09:07:57.291Z,275
2017-07-25T09:10:25.222Z,315
2017-07-25T09:11:05.737Z,320
2017-07-25T09:11:46.248Z,315
2017-07-25T09:12:26.717Z,290
2017-07-25T09:13:07.189Z,250
2017-07-25T09:13:47.661Z,230
2017-07-25T09:14:28.159Z,220
2017-07-25T09:15:08.654Z,215
2017-07-25T09:15:49.169Z,205
2017-07-25T09:16:29.652Z,170
2017-07-25T09:17:10.113Z,135
2017-07-25T09:17:50.625Z,115
2017-07-25T09:18:31.130Z,105
2017-07-25T09:19:11.633Z,110
2017-07-25T09:19:52.124Z,125
2017-07-25T09:20:32.642Z,160
2017-07-25T09:21:13.170Z,175
2017-07-25T09:21:53.725Z,185
2017-07-25T09:22:34.270Z,195
2017-07-25T09:23:14.753Z,195
2017-07-25T09:25:48.181Z,175
2017-07-25T09:26:28.676Z,145
2017-07-25T09:27:09.144Z,125
2017-07-25T09:27:49.640Z,95
2017-07-25T09:28:30.120Z,95
2017-07-25T09:29:10.603Z,115
2017-07-25T09:29:51.162Z,115
2017-07-25T09:30:31.671Z,110
2017-07-25T09:31:12.179Z,100
2017-07-25T09:31:52.677Z,90
2017-07-25T09:32:33.195Z,85
2017-07-25T09:33:13.676Z,70
2017-07-25T09:33:54.149Z,70
2017-07-25T09:34:34.633Z,85
2017-07-25T09:35:15.119Z,105
2017-07-25T09:35:55.615Z,125
2017-07-25T09:36:36.103Z,155
2017-07-25T09:37:16.598Z,195
2017-07-25T09:37:57.121Z,210
2017-07-25T09:38:37.648Z,205
2017-07-25T09:39:18.115Z,190
2017-07-25T09:39:58.642Z,165
2017-07-25T09:40:39.112Z,145
2017-07-25T09:41:19.622Z,130
2017-07-25T09:42:00.130Z,120
2017-07-25T09:42:40.680Z,105
2017-07-25T09:43:21.173Z,90
2017-07-25T09:44:01.674Z,75
2017-07-25T09:44:42.202Z,65
2017-07-25T09:45:22.723Z,65
2017-07-25T09:46:03.264Z,65
2017-07-25T09:46:43.820Z,70
2017-07-25T09:47:24.362Z,85
2017-07-25T09:49:52.352Z,120
2017-07-25T09:50:32.788Z,100
2017-07-25T09:51:13.245Z,90
2017-07-25T09:51:53.746Z,100
2017-07-25T09:52:34.213Z,145
2017-07-25T09:53:14.691Z,180
2017-07-25T09:53:55.195Z,190
2017-07-25T09:54:35.704Z,160
2017-07-25T09:55:16.186Z,165
2017-07-25T09:57:33.999Z,215
2017-07-25T09:58:14.510Z,215
2017-07-25T09:58:54.997Z,210
2017-07-25T09:59:35.532Z,200
2017-07-25T10:00:16.819Z,190
2017-07-25T10:00:57.336Z,185
2017-07-25T10:01:37.842Z,170
2017-07-25T10:03:10.514Z,155
2017-07-25T10:03:50.988Z,150
2017-07-25T10:05:05.389Z,165
2017-07-25T10:05:48.699Z,175
2017-07-25T10:06:29.189Z,185
2017-07-25T10:07:09.700Z,200
2017-07-25T10:07:50.192Z,220
2017-07-25T10:08:30.668Z,235
2017-07-25T10:09:11.181Z,250
2017-07-25T10:09:51.758Z,270
2017-07-25T10:10:32.239Z,285
2017-07-25T10:11:12.719Z,300
2017-07-25T10:11:53.228Z,325
2017-07-25T10:12:33.749Z,340
2017-07-25T10:13:14.301Z,370
2017-07-25T10:13:55.706Z,400
2017-07-25T10:14:36.211Z,420
2017-07-25T10:17:09.220Z,525
2017-07-25T10:17:49.706Z,545
2017-07-25T10:18:30.844Z,560
2017-07-25T10:19:11.311Z,565
2017-07-25T10:19:52.305Z,560
2017-07-25T10:20:32.768Z,545
2017-07-25T10:21:13.213Z,530
2017-07-25T10:21:53.660Z,525
2017-07-25T10:24:26.711Z,485
2017-07-25T10:25:07.176Z,480
2017-07-25T10:25:47.669Z,480
2017-07-25T10:26:28.158Z,500
2017-07-25T10:27:08.631Z,525
2017-07-25T10:27:49.101Z,540
2017-07-25T10:28:29.623Z,580
2017-07-25T10:29:10.931Z,590
2017-07-25T10:31:49.036Z,605
2017-07-25T10:32:29.538Z,590
2017-07-25T10:33:10.027Z,575
2017-07-25T10:33:50.503Z,570
2017-07-25T10:34:30.970Z,570
2017-07-25T10:35:11.435Z,575
2017-07-25T10:35:52.607Z,580
2017-07-25T10:36:33.056Z,600
2017-07-25T10:37:13.520Z,605
2017-07-25T10:37:53.980Z,615
2017-07-25T10:38:34.490Z,605
2017-07-25T10:39:15.882Z,600
2017-07-25T10:39:56.431Z,595
2017-07-25T10:42:09.173Z,565
2017-07-25T10:42:49.679Z,560
2017-07-25T10:43:30.159Z,555
2017-07-25T10:44:10.644Z,555
2017-07-25T10:44:51.127Z,550
2017-07-25T10:45:31.593Z,545
2017-07-25T10:47:49.429Z,515
2017-07-25T10:48:29.910Z,505
2017-07-25T10:49:10.430Z,505
2017-07-25T10:49:51.404Z,490
2017-07-25T10:50:32.806Z,485
2017-07-25T10:53:05.824Z,465
2017-07-25T10:53:46.319Z,455
2017-07-25T10:54:26.829Z,435
2017-07-25T10:55:07.362Z,410
2017-07-25T10:55:48.616Z,405
2017-07-25T10:56:29.089Z,405
2017-07-25T10:57:09.583Z,410
2017-07-25T10:57:50.057Z,405
2017-07-25T10:58:30.553Z,405
2017-07-25T10:59:11.046Z,395
2017-07-25T10:59:51.519Z,390
2017-07-25T11:00:31.975Z,390
2017-07-25T11:01:12.460Z,400
2017-07-25T11:01:52.950Z,395
2017-07-25T11:02:33.425Z,390
2017-07-25T11:03:13.907Z,370
2017-07-25T11:03:54.403Z,385
2017-07-25T11:04:34.907Z,390
2017-07-25T11:05:15.384Z,380
2017-07-25T11:05:55.872Z,380
2017-07-25T11:06:36.355Z,385
2017-07-25T11:07:16.794Z,395
2017-07-25T11:07:57.281Z,390
2017-07-25T11:10:15.095Z,370
